Time;durP1;ratioP1;P1;durP2;ratioP2;P2;SDS_P1;SDS_P2;PMS_P1;PMS_P2;Temp;Humidity;BMP_temperature;BMP_pressure;BME280_temperature;BME280_humidity;BME280_pressure;Samples;Min_cycle;Max_cycle;Signal;HPM_P1;HPM_P2
2023/12/04 00:00:00;;;;;;;22.30;13.93;;;-0.30;99.90;;;-1.41;86.99;101228.81;5076913;28;20201;-71
2023/12/04 00:02:29;;;;;;;21.83;13.73;;;-0.20;99.90;;;-1.44;86.50;101227.22;5076800;28;20225;-71
2023/12/04 00:04:57;;;;;;;22.97;14.87;;;-0.30;99.90;;;-1.41;87.86;101220.94;5076789;28;20209;-71
2023/12/04 00:07:25;;;;;;;21.57;14.23;;;-0.30;99.90;;;-1.39;87.34;101226.97;5076792;28;20237;-71
2023/12/04 00:09:54;;;;;;;22.70;14.83;;;-0.20;99.90;;;-1.41;87.83;101218.31;5076477;28;20240;-71
2023/12/04 00:12:23;;;;;;;23.97;14.20;;;-0.20;99.90;;;-1.45;87.57;101214.13;5076592;28;20233;-71
2023/12/04 00:14:52;;;;;;;21.70;13.90;;;-0.30;99.90;;;-1.44;87.27;101219.31;5076171;28;20578;-71
2023/12/04 00:17:20;;;;;;;22.83;14.07;;;-0.20;99.90;;;-1.47;86.66;101213.38;5076467;28;20626;-71
2023/12/04 00:19:48;;;;;;;20.83;12.73;;;-0.30;99.90;;;-1.43;87.44;101212.28;5076060;28;20635;-71
2023/12/04 00:22:16;;;;;;;23.90;14.40;;;-0.40;99.90;;;-1.45;86.65;101201.00;5076524;28;20316;-71
2023/12/04 00:24:44;;;;;;;20.73;13.80;;;-0.30;99.90;;;-1.42;88.08;101200.84;5076010;28;20304;-71
2023/12/04 00:27:13;;;;;;;21.30;13.97;;;-0.30;99.90;;;-1.42;87.71;101195.59;5076249;28;20292;-71
2023/12/04 00:29:42;;;;;;;20.37;13.27;;;-0.20;99.90;;;-1.40;86.95;101197.22;5075854;28;20713;-71
2023/12/04 00:32:10;;;;;;;20.13;13.23;;;-0.20;99.90;;;-1.42;87.82;101200.84;5075841;28;20233;-71
2023/12/04 00:34:39;;;;;;;21.27;14.13;;;-0.30;99.90;;;-1.41;87.21;101197.31;5076172;28;20614;-71
2023/12/04 00:37:07;;;;;;;21.50;14.07;;;-0.30;99.90;;;-1.47;86.34;101189.75;5076833;28;20202;-71
2023/12/04 00:39:35;;;;;;;23.03;14.67;;;-0.40;99.90;;;-1.45;87.45;101191.34;5075894;28;20641;-71
2023/12/04 00:42:04;;;;;;;20.70;13.80;;;-0.30;99.90;;;-1.43;87.25;101184.25;5076480;28;20593;-71
2023/12/04 00:44:32;;;;;;;21.93;13.40;;;-0.30;99.90;;;-1.51;87.51;101193.44;5076171;28;20292;-71
2023/12/04 00:47:02;;;;;;;22.60;14.47;;;-0.40;99.90;;;-1.57;87.62;101191.91;5075937;28;20296;-71
2023/12/04 00:49:30;;;;;;;21.67;13.73;;;-0.40;99.90;;;-1.55;88.70;101180.44;5075863;28;20622;-71
2023/12/04 00:51:59;;;;;;;22.23;13.83;;;-0.40;99.90;;;-1.60;89.43;101187.66;5074918;28;20255;-71
2023/12/04 00:54:27;;;;;;;20.70;13.80;;;-0.50;99.90;;;-1.54;89.22;101165.50;5075456;28;20742;-71
2023/12/04 00:56:55;;;;;;;20.57;12.97;;;-0.30;99.90;;;-1.52;89.05;101162.84;5075464;28;20231;-71
2023/12/04 00:59:23;;;;;;;21.80;13.53;;;-0.40;99.90;;;-1.48;90.42;101154.75;5075653;28;20296;-71
2023/12/04 01:01:51;;;;;;;20.83;13.00;;;-0.30;99.90;;;-1.50;88.97;101145.22;5075249;28;20653;-71
2023/12/04 01:04:21;;;;;;;21.43;13.47;;;-0.40;99.90;;;-1.44;89.44;101144.94;5075600;28;20209;-71
2023/12/04 01:06:49;;;;;;;20.03;13.00;;;-0.30;99.90;;;-1.45;90.72;101141.47;5075514;28;20201;-71
2023/12/04 01:09:17;;;;;;;20.37;12.83;;;-0.30;99.90;;;-1.41;90.69;101136.91;5075151;28;20216;-71
2023/12/04 01:11:45;;;;;;;19.13;12.60;;;-0.30;99.90;;;-1.42;89.77;101124.69;5075252;28;20236;-71
2023/12/04 01:14:13;;;;;;;20.33;12.23;;;-0.30;99.90;;;-1.41;89.32;101124.63;5075375;28;20208;-71
2023/12/04 01:16:41;;;;;;;19.70;12.10;;;-0.30;99.90;;;-1.37;90.40;101127.97;5075361;28;20202;-71
2023/12/04 01:19:10;;;;;;;17.30;11.27;;;-0.20;99.90;;;-1.35;89.83;101118.22;5075325;28;20202;-71
2023/12/04 01:21:39;;;;;;;18.30;11.80;;;-0.20;99.90;;;-1.37;89.78;101118.28;5075182;28;20233;-71
2023/12/04 01:24:08;;;;;;;19.80;12.27;;;-0.20;99.90;;;-1.34;89.23;101118.16;5075091;28;20259;-71
2023/12/04 01:26:36;;;;;;;18.77;11.50;;;-0.10;99.90;;;-1.36;89.89;101106.00;5075076;28;20244;-71
2023/12/04 01:29:04;;;;;;;17.97;11.77;;;-0.20;99.90;;;-1.31;89.42;101106.66;5075066;28;20205;-71
2023/12/04 01:31:33;;;;;;;19.53;12.67;;;-0.20;99.90;;;-1.31;88.92;101109.28;5074694;28;20316;-71
2023/12/04 01:34:01;;;;;;;20.37;13.17;;;-0.20;99.90;;;-1.29;89.87;101107.41;5075075;28;20277;-71
2023/12/04 01:36:29;;;;;;;18.27;12.50;;;-0.10;99.90;;;-1.26;89.59;101115.13;5075020;28;20205;-71
2023/12/04 01:39:01;;;;;;;20.63;12.77;;;0.00;99.90;;;-1.32;88.67;101102.31;5074921;28;20246;-71
2023/12/04 01:41:29;;;;;;;20.30;12.93;;;-0.20;99.90;;;-1.30;88.38;101105.72;5074833;28;20314;-71
2023/12/04 01:43:57;;;;;;;18.93;12.83;;;-0.10;99.90;;;-1.29;88.15;101103.00;5074750;28;20296;-71
2023/12/04 01:46:27;;;;;;;20.20;13.40;;;0.00;99.90;;;-1.31;87.63;101099.63;5074431;28;20722;-71
2023/12/04 01:48:55;;;;;;;18.70;13.23;;;-0.10;99.90;;;-1.30;88.53;101093.41;5074701;28;20717;-71
2023/12/04 01:51:27;;;;;;;19.30;13.03;;;-0.10;99.90;;;-1.26;88.88;101094.97;5074583;28;20308;-71
2023/12/04 01:54:04;;;;;;;21.80;12.97;;;-0.10;99.90;;;-1.24;88.40;101089.66;5074745;28;20217;-71
2023/12/04 01:56:34;;;;;;;19.70;13.17;;;0.00;99.90;;;-1.27;88.54;101077.53;5074633;28;20280;-71
2023/12/04 01:59:03;;;;;;;19.80;13.43;;;-0.10;99.90;;;-1.28;87.42;101082.84;5074134;28;20261;-71
2023/12/04 02:01:32;;;;;;;20.60;13.40;;;-0.10;99.90;;;-1.26;88.65;101075.72;5074385;28;20275;-71
2023/12/04 02:04:02;;;;;;;21.90;13.17;;;-0.20;99.90;;;-1.26;88.58;101080.97;5074053;28;20611;-71
2023/12/04 02:06:30;;;;;;;19.90;13.20;;;-0.10;99.90;;;-1.25;89.13;101080.91;5074290;28;20275;-71
2023/12/04 02:08:59;;;;;;;21.03;13.63;;;-0.10;99.90;;;-1.24;88.39;101068.63;5074296;28;20221;-71
2023/12/04 02:11:29;;;;;;;19.37;12.70;;;0.20;99.90;;;-1.29;88.49;101071.47;5074108;28;20229;-71
2023/12/04 02:13:57;;;;;;;23.17;14.47;;;-0.10;99.90;;;-1.24;89.11;101066.00;5074230;28;20279;-71
2023/12/04 02:16:30;;;;;;;20.47;13.07;;;-0.10;99.90;;;-1.24;89.57;101063.38;5074158;28;20232;-71
2023/12/04 02:18:58;;;;;;;22.43;13.90;;;-0.10;99.90;;;-1.29;90.87;101063.59;5074207;28;20278;-71
2023/12/04 02:21:26;;;;;;;21.37;13.33;;;-0.10;99.90;;;-1.27;92.31;101058.28;5073746;28;20253;-71
2023/12/04 02:23:56;;;;;;;19.83;13.50;;;-0.10;99.90;;;-1.28;91.56;101054.81;5074093;28;20206;-71
2023/12/04 02:26:35;;;;;;;23.53;14.47;;;-0.10;99.90;;;-1.25;92.14;101059.03;5074049;28;20206;-71
2023/12/04 02:29:12;;;;;;;21.00;13.60;;;-0.10;99.90;;;-1.26;93.80;101055.56;5074109;28;20193;-71
2023/12/04 02:31:42;;;;;;;22.17;14.10;;;-0.10;99.90;;;-1.26;93.84;101039.81;5073641;28;20319;-71
2023/12/04 02:34:16;;;;;;;24.10;14.37;;;-0.10;99.90;;;-1.29;93.71;101034.72;5074671;28;20291;-71
2023/12/04 02:36:46;;;;;;;19.73;12.87;;;-0.20;99.90;;;-1.34;95.61;101030.63;5073901;28;20194;-71
2023/12/04 02:39:16;;;;;;;21.57;13.67;;;0.10;99.90;;;-1.29;95.29;101031.22;5073772;28;20216;-71
2023/12/04 02:41:44;;;;;;;22.50;14.63;;;-0.10;99.90;;;-1.30;94.98;101021.69;5073673;28;20317;-71
2023/12/04 02:44:12;;;;;;;21.90;14.07;;;-0.10;99.90;;;-1.30;95.43;101022.50;5073774;28;20233;-71
2023/12/04 02:46:40;;;;;;;21.30;14.07;;;-0.20;99.90;;;-1.30;96.51;101017.25;5073689;28;20212;-71
2023/12/04 02:49:08;;;;;;;23.97;14.80;;;-0.20;99.90;;;-1.35;97.23;101013.16;5073708;28;20284;-71
2023/12/04 02:51:36;;;;;;;24.90;15.43;;;-0.20;99.90;;;-1.30;96.35;101006.75;5073483;28;20239;-71
2023/12/04 02:54:04;;;;;;;23.43;14.67;;;-0.10;99.90;;;-1.29;96.34;100997.09;5073610;28;20216;-71
2023/12/04 02:56:34;;;;;;;23.10;15.43;;;-0.10;99.90;;;-1.28;97.00;100998.78;5073564;28;20292;-71
2023/12/04 02:59:02;;;;;;;22.53;14.13;;;-0.20;99.90;;;-1.26;96.68;100996.94;5073614;28;20201;-71
2023/12/04 03:01:30;;;;;;;23.10;15.50;;;-0.10;99.90;;;-1.27;95.91;100988.22;5073445;28;20221;-71
2023/12/04 03:04:01;;;;;;;22.93;14.57;;;-0.20;99.90;;;-1.28;95.71;100985.66;5073488;28;20215;-71
2023/12/04 03:06:29;;;;;;;23.90;14.57;;;-0.10;99.90;;;-1.33;95.51;100991.13;5073498;28;20186;-71
2023/12/04 03:08:59;;;;;;;21.90;14.77;;;-0.20;99.90;;;-1.29;95.85;100981.31;5073840;28;20207;-71
2023/12/04 03:11:27;;;;;;;23.43;15.07;;;-0.20;99.90;;;-1.29;95.92;100978.69;5073326;28;20257;-71
2023/12/04 03:13:55;;;;;;;22.57;14.27;;;-0.20;99.90;;;-1.28;95.86;100973.38;5073173;28;20770;-71
2023/12/04 03:16:23;;;;;;;23.37;14.53;;;-0.10;99.90;;;-1.27;96.23;100968.97;5079269;28;20229;-71
2023/12/04 03:18:52;;;;;;;21.47;14.53;;;-0.20;99.90;;;-1.25;95.40;100972.38;5079751;28;20611;-71
2023/12/04 03:21:20;;;;;;;21.53;14.70;;;-0.10;99.90;;;-1.28;95.20;100964.66;5079990;28;20221;-71
2023/12/04 03:23:48;;;;;;;20.77;13.77;;;-0.10;99.90;;;-1.30;94.26;100969.16;5079915;28;20211;-71
2023/12/04 03:26:16;;;;;;;21.77;13.73;;;-0.10;99.90;;;-1.30;95.21;100962.09;5079968;28;20228;-71
2023/12/04 03:28:45;;;;;;;20.33;13.23;;;-0.20;99.90;;;-1.28;95.28;100967.28;5080010;28;20569;-71
2023/12/04 03:31:14;;;;;;;20.60;13.17;;;-0.20;99.90;;;-1.27;94.60;100963.72;5079565;28;20570;-71
2023/12/04 03:33:43;;;;;;;18.97;12.70;;;-0.10;99.90;;;-1.24;94.14;100958.31;5080035;28;20247;-71
2023/12/04 03:36:11;;;;;;;20.03;12.87;;;-0.10;99.90;;;-1.22;93.81;100957.28;5079619;28;20618;-71
2023/12/04 03:38:39;;;;;;;17.67;12.03;;;0.00;99.90;;;-1.21;93.99;100952.91;5079825;28;20236;-71
2023/12/04 03:41:15;;;;;;;18.80;12.27;;;0.00;99.90;;;-1.22;93.92;100956.44;5079789;28;20284;-71
2023/12/04 03:43:44;;;;;;;17.47;11.87;;;0.10;99.90;;;-1.20;93.19;100955.44;5079842;28;20280;-71
2023/12/04 03:46:14;;;;;;;19.07;11.43;;;-0.10;99.90;;;-1.20;93.35;100944.09;5079456;28;20621;-71
2023/12/04 03:48:42;;;;;;;16.00;10.80;;;0.00;99.90;;;-1.19;93.02;100940.50;5079809;28;20205;-71
2023/12/04 03:51:10;;;;;;;16.67;10.80;;;0.00;99.90;;;-1.20;93.39;100933.59;5079307;28;20667;-71
2023/12/04 03:53:38;;;;;;;17.00;10.83;;;0.00;99.90;;;-1.18;92.71;100932.56;5079712;28;20295;-71
2023/12/04 03:56:08;;;;;;;16.23;10.20;;;0.10;99.90;;;-1.16;93.50;100927.22;5079685;28;20292;-71
2023/12/04 03:58:37;;;;;;;17.30;10.87;;;-0.10;99.90;;;-1.19;93.39;100920.34;5079710;28;20209;-71
2023/12/04 04:01:07;;;;;;;15.83;10.63;;;0.10;99.90;;;-1.15;92.67;100918.41;5079557;28;20229;-71
2023/12/04 04:03:37;;;;;;;15.93;10.40;;;0.00;99.90;;;-1.14;92.72;100909.59;5079373;28;20201;-71
2023/12/04 04:06:06;;;;;;;15.50;11.00;;;0.00;99.90;;;-1.13;92.72;100903.44;5079658;28;20245;-71
2023/12/04 04:08:35;;;;;;;13.87;9.73;;;0.00;99.90;;;-1.13;92.81;100900.81;5079500;28;20209;-71
2023/12/04 04:11:04;;;;;;;14.40;9.97;;;0.00;99.90;;;-1.11;93.24;100901.56;5079527;28;20205;-71
2023/12/04 04:13:32;;;;;;;15.30;10.80;;;0.00;99.90;;;-1.11;91.99;100897.16;5079522;28;20316;-71
2023/12/04 04:16:00;;;;;;;14.43;9.73;;;0.10;99.90;;;-1.13;91.89;100898.19;5079594;28;20205;-71
2023/12/04 04:18:28;;;;;;;16.73;10.37;;;0.00;99.90;;;-1.13;90.98;100893.75;5079152;28;20697;-71
2023/12/04 04:20:58;;;;;;;13.90;9.83;;;0.10;99.90;;;-1.14;91.45;100881.56;5079698;28;20242;-71
2023/12/04 04:23:35;;;;;;;14.17;9.40;;;0.10;99.90;;;-1.11;91.25;100885.78;5079132;28;20279;-71
2023/12/04 04:26:04;;;;;;;14.17;9.93;;;0.10;99.90;;;-1.09;90.96;100884.78;5078454;28;20289;-70
2023/12/04 04:28:32;;;;;;;16.00;9.53;;;0.10;99.90;;;-1.09;91.54;100884.78;5075513;28;20634;-71
2023/12/04 04:31:00;;;;;;;14.40;9.13;;;0.10;99.90;;;-1.08;90.15;100880.38;5075826;28;20214;-70
2023/12/04 04:33:29;;;;;;;14.10;9.07;;;0.10;99.90;;;-1.08;90.81;100864.59;5075662;28;20236;-71
2023/12/04 04:35:58;;;;;;;11.90;8.43;;;0.10;99.90;;;-1.08;90.47;100864.59;5076035;28;20212;-71
2023/12/04 04:38:26;;;;;;;14.00;9.47;;;0.10;99.90;;;-1.06;89.63;100857.47;5076025;28;20667;-71
2023/12/04 04:40:55;;;;;;;12.80;8.83;;;0.10;99.90;;;-1.05;89.29;100848.69;5076061;28;20296;-71
2023/12/04 04:43:23;;;;;;;13.03;8.90;;;0.10;99.90;;;-1.02;89.50;100851.97;5075927;28;20278;-71
2023/12/04 04:45:51;;;;;;;14.93;9.30;;;0.20;99.90;;;-1.01;89.20;100858.09;5075973;28;20205;-71
2023/12/04 04:48:19;;;;;;;14.23;9.80;;;0.20;99.90;;;-1.00;88.93;100857.16;5075671;28;20761;-71
2023/12/04 04:50:47;;;;;;;13.37;9.17;;;0.20;99.90;;;-1.04;88.97;100863.50;5075888;28;20209;-71
2023/12/04 04:53:17;;;;;;;12.57;8.30;;;0.20;99.90;;;-1.03;89.21;100852.09;5075706;28;20233;-71
2023/12/04 04:55:45;;;;;;;12.60;8.73;;;0.20;99.90;;;-1.01;88.76;100855.47;5075711;28;20305;-71
2023/12/04 04:58:17;;;;;;;11.47;8.10;;;0.20;99.90;;;-0.99;89.07;100852.75;5075734;28;20276;-71
2023/12/04 05:00:46;;;;;;;13.03;8.60;;;0.20;99.90;;;-0.98;88.81;100855.28;5075682;28;20229;-71
2023/12/04 05:03:14;;;;;;;11.93;8.20;;;0.10;99.90;;;-0.96;89.95;100840.31;5075531;28;20222;-71
2023/12/04 05:05:43;;;;;;;13.07;8.43;;;0.20;99.90;;;-0.97;88.93;100846.47;5075284;28;20740;-71
2023/12/04 05:08:11;;;;;;;10.80;7.87;;;0.20;99.90;;;-0.96;89.00;100840.31;5075474;28;20212;-71
2023/12/04 05:10:40;;;;;;;12.90;8.00;;;0.20;99.90;;;-0.97;89.70;100846.47;5075454;28;20267;-71
2023/12/04 05:13:08;;;;;;;11.17;8.23;;;0.30;99.90;;;-0.94;89.49;100835.78;5075307;28;20237;-71
2023/12/04 05:15:37;;;;;;;10.67;7.37;;;0.30;99.90;;;-0.93;88.82;100839.28;5075386;28;20201;-71
2023/12/04 05:18:05;;;;;;;10.37;7.40;;;0.30;99.90;;;-0.92;87.94;100839.19;5075383;28;20201;-71
2023/12/04 05:20:33;;;;;;;11.33;7.80;;;0.40;99.90;;;-0.90;88.70;100837.31;5074952;28;20209;-71
2023/12/04 05:23:02;;;;;;;10.10;7.00;;;0.30;99.90;;;-0.89;87.53;100838.19;5074837;28;20586;-71
2023/12/04 05:25:30;;;;;;;10.90;8.37;;;0.30;99.90;;;-0.87;87.48;100837.16;5075185;28;20244;-71
2023/12/04 05:28:09;;;;;;;12.83;7.87;;;0.30;99.90;;;-0.88;86.98;100832.81;5075111;28;20185;-71
2023/12/04 05:30:37;;;;;;;10.77;7.63;;;0.30;99.90;;;-0.85;86.51;100843.16;5074942;28;20212;-71
2023/12/04 05:33:06;;;;;;;10.57;7.93;;;0.30;99.90;;;-0.87;85.77;100821.38;5074478;28;20634;-71
2023/12/04 05:35:36;;;;;;;10.63;7.73;;;0.30;99.90;;;-0.86;86.56;100817.84;5075018;28;20206;-71
2023/12/04 05:38:04;;;;;;;12.27;8.43;;;0.30;99.90;;;-0.85;85.74;100816.88;5074598;28;20292;-71
2023/12/04 05:40:32;;;;;;;10.43;7.40;;;0.30;99.90;;;-0.84;85.77;100818.56;5075070;28;20296;-65
2023/12/04 05:43:00;;;;;;;11.40;7.80;;;0.40;99.90;;;-0.84;85.15;100815.94;5074836;28;20640;-71
2023/12/04 05:45:30;;;;;;;10.87;8.20;;;0.40;99.90;;;-0.83;85.15;100817.66;5074756;28;20220;-71
2023/12/04 05:47:58;;;;;;;11.17;8.00;;;0.40;99.90;;;-0.83;85.65;100822.91;5074800;28;20205;-71
2023/12/04 05:50:27;;;;;;;11.40;8.13;;;0.50;99.90;;;-0.83;84.32;100816.81;5074728;28;20254;-71
2023/12/04 05:52:55;;;;;;;11.37;8.17;;;0.40;99.90;;;-0.83;84.61;100817.66;5074171;28;20690;-71
2023/12/04 05:55:23;;;;;;;9.67;7.73;;;0.40;99.90;;;-0.83;84.23;100820.28;5074200;28;20671;-71
2023/12/04 05:57:51;;;;;;;10.97;8.23;;;0.40;99.90;;;-0.83;85.00;100817.66;5074409;28;20209;-71
2023/12/04 06:00:21;;;;;;;11.30;7.97;;;0.40;99.90;;;-0.82;84.78;100808.81;5074639;28;20202;-71
2023/12/04 06:02:55;;;;;;;10.03;7.50;;;0.30;99.90;;;-0.80;84.67;100822.72;5074523;28;20226;-71
2023/12/04 06:05:24;;;;;;;12.00;8.80;;;0.40;99.90;;;-0.83;82.93;100812.41;5074413;28;20189;-71
2023/12/04 06:07:52;;;;;;;11.50;8.47;;;0.40;99.90;;;-0.80;84.52;100814.84;5074219;28;20209;-71
2023/12/04 06:10:20;;;;;;;13.43;8.67;;;0.50;99.90;;;-0.79;84.69;100813.94;5074265;28;20304;-71
2023/12/04 06:12:49;;;;;;;11.27;8.67;;;0.40;99.90;;;-0.79;85.21;100808.66;5073903;28;20329;-71
2023/12/04 06:15:17;;;;;;;12.47;8.63;;;0.40;99.90;;;-0.80;83.45;100804.34;5074168;28;20201;-71
2023/12/04 06:17:45;;;;;;;13.37;8.70;;;0.40;99.90;;;-0.78;84.02;100797.19;5074122;28;20258;-71
2023/12/04 06:20:15;;;;;;;11.80;8.70;;;0.40;99.90;;;-0.77;83.87;100796.28;5074068;28;20209;-71
2023/12/04 06:22:44;;;;;;;15.03;9.63;;;0.40;99.90;;;-0.76;83.74;100794.50;5073752;28;20726;-71
2023/12/04 06:25:14;;;;;;;13.53;9.53;;;0.50;99.90;;;-0.76;83.83;100797.13;5073610;28;20722;-71
2023/12/04 06:27:44;;;;;;;12.70;8.83;;;0.40;99.90;;;-0.76;84.15;100786.59;5073679;28;20238;-71
2023/12/04 06:30:13;;;;;;;12.87;8.73;;;0.40;99.90;;;-0.76;84.09;100787.47;5073971;28;20212;-71
2023/12/04 06:32:42;;;;;;;13.00;8.60;;;0.40;99.90;;;-0.75;84.91;100788.28;5073495;28;20316;-71
2023/12/04 06:35:12;;;;;;;11.97;8.57;;;0.40;99.90;;;-0.75;84.14;100788.28;5073833;28;20353;-71
2023/12/04 06:37:46;;;;;;;14.27;9.07;;;0.40;99.90;;;-0.75;84.40;100791.75;5073931;28;20281;-71
2023/12/04 06:40:15;;;;;;;13.57;9.40;;;0.50;99.90;;;-0.73;84.18;100784.66;5073508;28;20715;-71
2023/12/04 06:42:44;;;;;;;13.23;9.17;;;0.40;99.90;;;-0.72;83.91;100796.03;5073705;28;20232;-71
2023/12/04 06:45:13;;;;;;;12.77;9.03;;;0.40;99.90;;;-0.73;84.06;100787.28;5073748;28;20283;-71
2023/12/04 06:47:44;;;;;;;13.77;9.90;;;0.40;99.90;;;-0.73;84.05;100787.28;5073718;28;20211;-71
2023/12/04 06:50:12;;;;;;;13.00;9.83;;;0.50;99.90;;;-0.73;83.55;100792.53;5073049;28;20209;-71
2023/12/04 06:52:40;;;;;;;12.33;8.80;;;0.40;99.90;;;-0.72;83.19;100783.69;5073576;28;20225;-71
2023/12/04 06:55:13;;;;;;;12.73;8.60;;;0.50;99.90;;;-0.70;83.67;100781.84;5073640;28;20292;-71
2023/12/04 06:57:42;;;;;;;12.00;8.83;;;0.50;99.90;;;-0.70;83.45;100781.00;5073525;28;20185;-70
2023/12/04 07:00:14;;;;;;;13.17;9.60;;;0.50;99.90;;;-0.69;83.62;100787.97;5073589;28;20209;-70
2023/12/04 07:02:50;;;;;;;13.00;9.23;;;0.50;99.90;;;-0.71;82.75;100785.41;5073481;28;20232;-71
2023/12/04 07:05:19;;;;;;;12.00;9.03;;;0.50;99.90;;;-0.70;83.37;100776.59;5073180;28;20304;-71
2023/12/04 07:07:48;;;;;;;12.83;9.47;;;0.50;99.90;;;-0.70;82.44;100771.34;5073476;28;20208;-71
2023/12/04 07:10:20;;;;;;;13.80;8.70;;;0.50;99.90;;;-0.70;82.26;100778.38;5073449;28;20240;-71
2023/12/04 07:12:48;;;;;;;12.77;9.30;;;0.50;99.90;;;-0.67;82.83;100781.66;5073388;28;20229;-71
2023/12/04 07:15:17;;;;;;;13.83;9.23;;;0.50;99.90;;;-0.68;82.62;100777.34;5073025;28;20628;-71
2023/12/04 07:17:45;;;;;;;12.73;9.57;;;0.50;99.90;;;-0.69;83.16;100778.28;5073382;28;20294;-71
2023/12/04 07:20:13;;;;;;;15.27;10.07;;;0.60;99.90;;;-0.67;83.01;100786.06;5073038;28;20685;-71
2023/12/04 07:22:42;;;;;;;17.20;12.00;;;0.50;99.90;;;-0.67;82.83;100780.81;5073265;28;20256;-71
2023/12/04 07:25:10;;;;;;;15.00;11.23;;;0.50;99.90;;;-0.66;81.99;100793.03;5073048;28;20732;-71
2023/12/04 07:27:40;;;;;;;15.63;11.07;;;0.50;99.90;;;-0.67;81.66;100802.69;5073000;28;20574;-71
2023/12/04 07:30:09;;;;;;;14.50;10.87;;;0.50;99.90;;;-0.65;82.08;100794.75;5073287;28;20201;-71
2023/12/04 07:32:37;;;;;;;14.57;10.17;;;0.50;99.90;;;-0.65;81.65;100798.19;5072900;28;20323;-71
2023/12/04 07:35:07;;;;;;;17.67;11.37;;;0.50;99.90;;;-0.65;82.18;100802.63;5073109;28;20225;-71
2023/12/04 07:37:36;;;;;;;16.30;10.60;;;0.50;99.90;;;-0.65;83.02;100795.56;5073177;28;20292;-71
2023/12/04 07:40:07;;;;;;;16.60;11.13;;;0.50;99.90;;;-0.67;82.36;100802.69;5073187;28;20259;-71
2023/12/04 07:42:35;;;;;;;16.07;11.07;;;0.50;99.90;;;-0.65;82.57;100789.47;5073192;28;20255;-71
2023/12/04 07:45:07;;;;;;;15.30;11.07;;;0.50;99.90;;;-0.65;83.08;100800.81;5073109;28;20255;-71
2023/12/04 07:47:35;;;;;;;16.07;10.83;;;0.50;99.90;;;-0.69;82.72;100794.06;5073156;28;20284;-71
2023/12/04 07:50:04;;;;;;;15.80;10.63;;;0.50;99.90;;;-0.66;82.68;100793.88;5073105;28;20241;-71
2023/12/04 07:52:32;;;;;;;15.17;10.60;;;0.50;99.90;;;-0.66;84.10;100783.38;5072989;28;20303;-71
2023/12/04 07:55:00;;;;;;;14.60;10.60;;;0.60;99.90;;;-0.66;83.71;100791.25;5072664;28;20757;-71
2023/12/04 07:57:29;;;;;;;14.77;9.80;;;0.60;99.90;;;-0.66;83.20;100793.88;5073055;28;20203;-71
2023/12/04 07:59:57;;;;;;;13.03;9.87;;;0.60;99.90;;;-0.65;83.22;100790.31;5072979;28;20240;-71
2023/12/04 08:02:27;;;;;;;16.00;10.73;;;0.60;99.90;;;-0.64;83.01;100783.25;5075778;28;20271;-71
2023/12/04 08:04:55;;;;;;;17.07;10.93;;;0.50;99.90;;;-0.64;83.59;100781.50;5076304;28;20640;-71
2023/12/04 08:07:23;;;;;;;15.57;10.90;;;0.80;99.90;;;-0.62;82.99;100779.59;5076339;28;20693;-71
2023/12/04 08:09:53;;;;;;;15.60;11.73;;;0.60;99.90;;;-0.59;83.73;100778.59;5076604;28;20241;-71
2023/12/04 08:12:21;;;;;;;16.73;11.70;;;0.60;99.90;;;-0.59;83.17;100778.59;5076465;28;20237;-71
2023/12/04 08:14:50;;;;;;;14.20;10.93;;;0.50;99.90;;;-0.59;82.84;100783.88;5076461;28;20320;-71
2023/12/04 08:17:18;;;;;;;17.13;11.63;;;0.60;99.90;;;-0.59;82.47;100779.44;5076498;28;20201;-71
2023/12/04 08:19:47;;;;;;;14.80;10.53;;;0.70;99.90;;;-0.59;82.50;100779.44;5076117;28;20643;-71
2023/12/04 08:22:20;;;;;;;14.17;10.40;;;0.60;99.90;;;-0.59;82.27;100779.44;5076408;28;20265;-71
2023/12/04 08:24:48;;;;;;;18.67;13.60;;;0.60;99.90;;;-0.55;82.46;100780.94;5076596;28;20229;-71
2023/12/04 08:27:16;;;;;;;22.50;15.00;;;0.60;99.90;;;-0.54;83.59;100772.13;5076265;28;20209;-71
2023/12/04 08:29:44;;;;;;;17.40;13.03;;;0.60;99.90;;;-0.56;82.22;100778.41;5076217;28;20293;-71
2023/12/04 08:32:12;;;;;;;14.53;10.53;;;0.60;99.90;;;-0.56;82.29;100773.16;5075997;28;20328;-71
2023/12/04 08:34:41;;;;;;;15.03;10.60;;;0.60;99.90;;;-0.56;83.08;100768.75;5076045;28;20235;-71
2023/12/04 08:37:10;;;;;;;16.63;10.73;;;0.60;99.90;;;-0.59;82.73;100774.19;5075823;28;20300;-71
2023/12/04 08:39:38;;;;;;;14.07;10.57;;;0.60;99.90;;;-0.58;83.01;100773.25;5076051;28;20211;-72
2023/12/04 08:42:07;;;;;;;62.40;45.77;;;0.60;99.90;;;-0.57;82.36;100769.69;5075990;28;20221;-72
2023/12/04 08:44:45;;;;;;;17.37;11.97;;;0.70;99.90;;;-0.54;82.53;100761.59;5076068;28;20186;-72
2023/12/04 08:47:13;;;;;;;16.03;11.33;;;0.60;99.90;;;-0.53;82.65;100767.72;5075677;28;20213;-72
2023/12/04 08:49:42;;;;;;;15.40;11.30;;;0.70;99.90;;;-0.54;83.34;100763.38;5076070;28;20228;-72
2023/12/04 08:52:17;;;;;;;15.90;10.93;;;0.60;99.90;;;-0.55;83.40;100766.97;5075582;28;20602;-72
2023/12/04 08:54:45;;;;;;;15.97;11.73;;;0.70;99.90;;;-0.55;84.46;100765.16;5075768;28;20230;-72
2023/12/04 08:57:14;;;;;;;17.57;11.50;;;0.60;99.90;;;-0.54;84.79;100761.59;5075803;28;20271;-72
2023/12/04 08:59:43;;;;;;;17.23;12.23;;;0.70;99.90;;;-0.53;83.87;100746.69;5075741;28;20304;-72
2023/12/04 09:02:11;;;;;;;18.27;12.57;;;0.80;99.90;;;-0.55;84.18;100738.88;5075388;28;20600;-71
2023/12/04 09:04:42;;;;;;;17.83;11.63;;;0.60;99.90;;;-0.53;85.81;100739.66;5075516;28;20231;-71
2023/12/04 09:07:10;;;;;;;15.57;11.57;;;0.60;99.90;;;-0.57;86.28;100740.75;5075376;28;20679;-71
2023/12/04 09:10:01;;;;;;;16.60;11.87;;;0.60;99.90;;;-0.56;85.67;100739.84;5075407;28;20217;-72
2023/12/04 09:12:38;;;;;;;15.53;11.20;;;0.60;99.90;;;-0.55;85.72;100741.50;5074854;28;20224;-72
2023/12/04 09:15:07;;;;;;;15.37;11.60;;;0.70;99.90;;;-0.55;86.29;100744.13;5075306;28;20226;-72
2023/12/04 09:17:36;;;;;;;16.07;11.20;;;0.60;99.90;;;-0.54;86.07;100740.56;5074180;28;20651;-72
2023/12/04 09:20:07;;;;;;;17.37;11.97;;;0.70;99.90;;;-0.58;85.98;100739.06;5074833;28;20190;-65
2023/12/04 09:22:38;;;;;;;16.17;11.53;;;0.50;99.90;;;-0.56;86.30;100741.59;5074920;28;20264;-69
2023/12/04 09:25:21;;;;;;;15.63;10.63;;;0.70;99.90;;;-0.54;86.32;100737.94;5073557;28;20734;-69
2023/12/04 09:27:49;;;;;;;15.00;11.47;;;0.60;99.90;;;-0.54;85.27;100730.06;5075307;28;20259;-69
2023/12/04 09:30:17;;;;;;;16.70;11.90;;;0.70;99.90;;;-0.51;85.81;100734.28;5075041;28;20240;-69
2023/12/04 09:32:46;;;;;;;16.60;10.97;;;0.60;99.90;;;-0.49;85.98;100732.44;5075300;28;20233;-69
2023/12/04 09:35:15;;;;;;;14.63;10.87;;;0.80;99.90;;;-0.49;85.88;100731.56;5075060;28;20287;-69
2023/12/04 09:37:43;;;;;;;18.30;10.97;;;0.60;99.90;;;-0.47;85.14;100730.53;5074933;28;20236;-69
2023/12/04 09:40:12;;;;;;;15.13;10.43;;;0.70;99.90;;;-0.44;84.47;100724.25;5074652;28;20618;-69
2023/12/04 09:42:42;;;;;;;14.60;10.77;;;0.70;99.90;;;-0.44;84.99;100725.09;5075138;28;20229;-69
2023/12/04 09:45:13;;;;;;;14.67;10.80;;;0.80;99.90;;;-0.42;83.63;100725.88;5075179;28;20205;-69
2023/12/04 09:47:43;;;;;;;13.83;9.70;;;0.80;99.90;;;-0.39;83.75;100720.41;5074796;28;20222;-69
2023/12/04 09:50:11;;;;;;;13.10;10.07;;;0.80;99.90;;;-0.36;83.11;100714.13;5074712;28;20209;-69
2023/12/04 09:52:40;;;;;;;13.00;9.53;;;0.80;99.90;;;-0.33;82.46;100706.03;5074761;28;20225;-69
2023/12/04 09:55:08;;;;;;;12.50;8.97;;;0.80;99.90;;;-0.32;81.34;100707.75;5074677;28;20251;-69
2023/12/04 09:57:38;;;;;;;13.83;9.40;;;0.90;99.90;;;-0.28;81.92;100709.25;5074526;28;20287;-69
2023/12/04 10:00:12;;;;;;;12.53;9.43;;;1.00;99.90;;;-0.24;80.65;100700.25;5074503;28;20206;-69
2023/12/04 10:02:41;;;;;;;15.77;10.17;;;0.90;99.90;;;-0.22;80.35;100695.72;5074973;28;20617;-69
2023/12/04 10:05:10;;;;;;;14.50;10.43;;;1.00;99.90;;;-0.21;80.55;100690.38;5074064;28;20205;-69
2023/12/04 10:07:38;;;;;;;12.70;9.77;;;1.10;99.90;;;-0.17;81.11;100691.03;5074356;28;20205;-69
2023/12/04 10:10:10;;;;;;;14.17;10.20;;;1.00;99.90;;;-0.14;81.40;100690.84;5074674;28;20190;-69
2023/12/04 10:12:38;;;;;;;14.80;10.50;;;1.10;99.90;;;-0.13;80.55;100684.63;5074243;28;20828;-69